Time;durP1;ratioP1;P1;durP2;ratioP2;P2;SDS_P1;SDS_P2;PMS_P1;PMS_P2;Temp;Humidity;BMP_temperature;BMP_pressure;BME280_temperature;BME280_humidity;BME280_pressure;Samples;Min_cycle;Max_cycle;Signal;HPM_P1;HPM_P2
2023/05/07 00:00:21;;;;;;;9.55;6.37;;;;;;;;;;4400741;32;316562;-90
2023/05/07 00:02:48;;;;;;;9.98;5.87;;;;;;;;;;4392005;32;316600;-90
2023/05/07 00:05:15;;;;;;;8.57;6.43;;;;;;;;;;4402681;32;316495;-90
2023/05/07 00:07:42;;;;;;;12.83;6.27;;;;;;;;;;4383672;32;337202;-90
2023/05/07 00:10:12;;;;;;;9.85;5.03;;;;;;;;;;4388003;32;317590;-90
2023/05/07 00:12:39;;;;;;;7.55;5.18;;;;;;;;;;4377926;32;316528;-90
2023/05/07 00:15:08;;;;;;;7.30;6.07;;;;;;;;;;4379507;32;316568;-89
2023/05/07 00:17:36;;;;;;;9.70;5.90;;;;;;;;;;4384000;32;316557;-90
2023/05/07 00:20:05;;;;;;;10.50;6.20;;;;;;;;;;4366794;32;355813;-90
2023/05/07 00:22:32;;;;;;;12.37;5.67;;;;;;;;;;4379884;32;317541;-90
2023/05/07 00:25:00;;;;;;;10.73;4.40;;;;;;;;;;4387987;32;317525;-90
2023/05/07 00:27:28;;;;;;;11.35;5.95;;;;;;;;;;4389053;32;317776;-91
2023/05/07 00:29:55;;;;;;;6.27;4.57;;;;;;;;;;4380367;32;317688;-90
2023/05/07 00:32:22;;;;;;;4.47;3.78;;;;;;;;;;4409448;32;316502;-90
2023/05/07 00:34:51;;;;;;;7.87;4.67;;;;;;;;;;4407298;32;315202;-90
2023/05/07 00:37:18;;;;;;;4.85;4.35;;;;;;;;;;4417404;32;316198;-90
2023/05/07 00:39:45;;;;;;;6.93;4.43;;;;;;;;;;4373263;32;316837;-90
2023/05/07 00:42:12;;;;;;;5.82;4.37;;;;;;;;;;4389178;32;315525;-89
2023/05/07 00:44:41;;;;;;;6.62;5.10;;;;;;;;;;4377161;32;316429;-90
2023/05/07 00:47:08;;;;;;;5.32;4.47;;;;;;;;;;4375249;32;342789;-90
2023/05/07 00:49:39;;;;;;;6.73;5.23;;;;;;;;;;4369355;32;375394;-90
2023/05/07 00:52:10;;;;;;;8.13;5.97;;;;;;;;;;4374738;32;316561;-90
2023/05/07 00:54:38;;;;;;;7.73;5.00;;;;;;;;;;4377348;32;316646;-90
2023/05/07 00:57:06;;;;;;;10.83;5.10;;;;;;;;;;4401548;32;346918;-90
2023/05/07 00:59:34;;;;;;;9.63;5.63;;;;;;;;;;4392965;32;317661;-90
2023/05/07 01:02:03;;;;;;;21.77;5.93;;;;;;;;;;4363919;32;388298;-90
2023/05/07 01:04:30;;;;;;;6.30;5.18;;;;;;;;;;4404501;32;317720;-90
2023/05/07 01:07:00;;;;;;;7.70;5.87;;;;;;;;;;4394028;32;316684;-90
2023/05/07 01:09:30;;;;;;;7.78;5.82;;;;;;;;;;4404023;32;316548;-90
2023/05/07 01:11:59;;;;;;;12.50;5.85;;;;;;;;;;4383949;32;316580;-90
2023/05/07 01:14:26;;;;;;;10.90;5.90;;;;;;;;;;4404859;32;317669;-90
2023/05/07 01:16:54;;;;;;;12.52;6.62;;;;;;;;;;4380542;32;317569;-90
2023/05/07 01:19:21;;;;;;;9.13;6.03;;;;;;;;;;4404053;32;317582;-90
2023/05/07 01:21:49;;;;;;;7.85;6.12;;;;;;;;;;4393660;32;316441;-90
2023/05/07 01:24:19;;;;;;;21.50;7.77;;;;;;;;;;4375800;32;354008;-90
2023/05/07 01:26:46;;;;;;;11.05;6.95;;;;;;;;;;4394717;32;317663;-90
2023/05/07 01:29:14;;;;;;;14.60;8.27;;;;;;;;;;4389646;32;317629;-90
2023/05/07 01:31:45;;;;;;;13.47;7.60;;;;;;;;;;4394733;32;317361;-90
2023/05/07 01:34:17;;;;;;;12.55;5.85;;;;;;;;;;4402388;32;317532;-90
2023/05/07 01:36:45;;;;;;;10.15;5.25;;;;;;;;;;4393417;32;317362;-90
2023/05/07 01:39:13;;;;;;;6.63;4.50;;;;;;;;;;4404319;32;317367;-89
2023/05/07 01:41:41;;;;;;;4.90;4.40;;;;;;;;;;4394420;32;316747;-90
2023/05/07 01:44:09;;;;;;;9.63;4.70;;;;;;;;;;4390747;32;316526;-90
2023/05/07 01:46:37;;;;;;;8.00;4.30;;;;;;;;;;4380896;32;316589;-90
2023/05/07 01:49:04;;;;;;;11.50;5.15;;;;;;;;;;4402814;32;316441;-90
2023/05/07 01:51:33;;;;;;;11.73;4.77;;;;;;;;;;4403449;32;317582;-90
2023/05/07 01:54:00;;;;;;;7.27;4.47;;;;;;;;;;4369737;32;417055;-90
2023/05/07 01:56:27;;;;;;;7.47;4.90;;;;;;;;;;4389616;32;316238;-90
2023/05/07 01:58:55;;;;;;;9.00;5.80;;;;;;;;;;4393949;32;316515;-90
2023/05/07 02:01:22;;;;;;;9.17;5.67;;;;;;;;;;4390996;32;316694;-90
2023/05/07 02:03:50;;;;;;;8.30;6.00;;;;;;;;;;4386211;32;316490;-91
2023/05/07 02:06:22;;;;;;;12.50;6.43;;;;;;;;;;4404223;32;316463;-90
2023/05/07 02:08:51;;;;;;;11.77;6.67;;;;;;;;;;4393333;32;317525;-90
2023/05/07 02:11:18;;;;;;;13.27;6.50;;;;;;;;;;4389746;32;317624;-90
2023/05/07 02:13:45;;;;;;;7.73;5.90;;;;;;;;;;4378233;32;317259;-90
2023/05/07 02:16:14;;;;;;;16.17;7.70;;;;;;;;;;4402394;32;316174;-90
2023/05/07 02:18:41;;;;;;;10.30;6.10;;;;;;;;;;4378406;32;317801;-90
2023/05/07 02:21:08;;;;;;;8.23;6.33;;;;;;;;;;4403463;32;317690;-90
2023/05/07 02:23:35;;;;;;;9.70;6.20;;;;;;;;;;4372998;32;316555;-90
2023/05/07 02:26:02;;;;;;;13.30;5.60;;;;;;;;;;4382162;32;316809;-90
2023/05/07 02:28:30;;;;;;;8.57;6.53;;;;;;;;;;4390925;32;324309;-90
2023/05/07 02:30:58;;;;;;;8.57;6.68;;;;;;;;;;4394257;32;316439;-90
2023/05/07 02:33:27;;;;;;;13.60;7.80;;;;;;;;;;4398682;32;316922;-90
2023/05/07 02:35:54;;;;;;;9.00;6.53;;;;;;;;;;4396560;32;317525;-90
2023/05/07 02:38:22;;;;;;;11.40;7.03;;;;;;;;;;4378800;32;316404;-90
2023/05/07 02:40:50;;;;;;;17.73;7.20;;;;;;;;;;4371508;32;318012;-90
2023/05/07 02:43:19;;;;;;;15.00;7.13;;;;;;;;;;4402063;32;317509;-90
2023/05/07 02:45:47;;;;;;;15.43;7.73;;;;;;;;;;4378481;32;343207;-90
2023/05/07 02:48:14;;;;;;;7.70;6.07;;;;;;;;;;4385634;32;317615;-90
2023/05/07 02:50:48;;;;;;;8.23;6.13;;;;;;;;;;4392588;32;316444;-90
2023/05/07 02:53:17;;;;;;;8.20;6.03;;;;;;;;;;4390101;32;316735;-90
2023/05/07 02:55:44;;;;;;;9.20;6.77;;;;;;;;;;4390599;32;316768;-90
2023/05/07 02:58:11;;;;;;;14.73;7.07;;;;;;;;;;4397209;32;316332;-90
2023/05/07 03:00:40;;;;;;;8.43;6.67;;;;;;;;;;4372870;32;315969;-91
2023/05/07 03:03:10;;;;;;;10.77;6.87;;;;;;;;;;4398914;32;316416;-90
2023/05/07 03:05:37;;;;;;;7.70;6.03;;;;;;;;;;4380737;32;317488;-90
2023/05/07 03:08:07;;;;;;;10.48;7.18;;;;;;;;;;4401874;32;316578;-90
2023/05/07 03:10:34;;;;;;;14.03;7.63;;;;;;;;;;4402282;32;317499;-90
2023/05/07 03:13:02;;;;;;;16.83;8.17;;;;;;;;;;4388931;32;393950;-90
2023/05/07 03:15:29;;;;;;;8.67;6.47;;;;;;;;;;4403241;32;317460;-90
2023/05/07 03:17:56;;;;;;;9.27;7.17;;;;;;;;;;4390974;32;316488;-90
2023/05/07 03:20:23;;;;;;;8.80;6.23;;;;;;;;;;4381573;32;316452;-91
2023/05/07 03:22:50;;;;;;;12.93;6.50;;;;;;;;;;4392006;32;316431;-90
2023/05/07 03:25:19;;;;;;;8.33;6.40;;;;;;;;;;4402820;32;328806;-90
2023/05/07 03:27:46;;;;;;;14.43;6.13;;;;;;;;;;4379484;32;316356;-92
2023/05/07 03:30:13;;;;;;;12.40;6.30;;;;;;;;;;4402713;32;317558;-90
2023/05/07 03:32:42;;;;;;;10.93;6.37;;;;;;;;;;4391580;32;317763;-90
2023/05/07 03:35:10;;;;;;;9.07;6.00;;;;;;;;;;4403252;32;318537;-90
2023/05/07 03:37:37;;;;;;;10.20;6.10;;;;;;;;;;4371708;32;316542;-90
2023/05/07 03:40:05;;;;;;;12.90;6.47;;;;;;;;;;4388561;32;317546;-90
2023/05/07 03:42:33;;;;;;;9.37;6.27;;;;;;;;;;4402373;32;317918;-90
2023/05/07 03:45:00;;;;;;;15.40;6.77;;;;;;;;;;4378252;32;316553;-90
2023/05/07 03:47:27;;;;;;;15.50;7.40;;;;;;;;;;4401483;32;317419;-90
2023/05/07 03:49:54;;;;;;;12.13;6.70;;;;;;;;;;4392587;32;317440;-90
2023/05/07 03:52:25;;;;;;;12.27;7.00;;;;;;;;;;4389171;32;317437;-90
2023/05/07 03:54:53;;;;;;;9.00;5.80;;;;;;;;;;4391051;32;317558;-90
2023/05/07 03:57:19;;;;;;;10.23;5.37;;;;;;;;;;4388337;32;316386;-90
2023/05/07 03:59:48;;;;;;;6.63;5.80;;;;;;;;;;4392932;32;317326;-90
2023/05/07 04:02:15;;;;;;;9.37;6.53;;;;;;;;;;4375158;32;316357;-90
2023/05/07 04:04:42;;;;;;;8.40;6.90;;;;;;;;;;4392055;32;316648;-90
2023/05/07 04:07:09;;;;;;;16.90;7.13;;;;;;;;;;4401247;32;316496;-90
2023/05/07 04:09:38;;;;;;;11.00;7.93;;;;;;;;;;4395082;32;317586;-90
2023/05/07 04:12:05;;;;;;;13.43;7.90;;;;;;;;;;4401650;32;317469;-90
2023/05/07 04:14:33;;;;;;;12.43;7.87;;;;;;;;;;4402290;32;317545;-90
2023/05/07 04:17:02;;;;;;;10.07;7.63;;;;;;;;;;4371034;32;317666;-90
2023/05/07 04:19:30;;;;;;;11.20;7.30;;;;;;;;;;4388133;32;317779;-90
2023/05/07 04:21:57;;;;;;;12.33;7.73;;;;;;;;;;4376724;32;317686;-90
2023/05/07 04:24:24;;;;;;;18.70;8.60;;;;;;;;;;4388954;32;317675;-90
2023/05/07 04:26:52;;;;;;;10.77;7.23;;;;;;;;;;4351725;32;317633;-90
2023/05/07 04:29:19;;;;;;;9.63;7.30;;;;;;;;;;4375473;32;321593;-91
2023/05/07 04:31:46;;;;;;;10.43;7.80;;;;;;;;;;4377914;32;316948;-90
2023/05/07 04:34:15;;;;;;;14.17;7.40;;;;;;;;;;4379883;32;317483;-90
2023/05/07 04:36:43;;;;;;;8.23;6.17;;;;;;;;;;4384760;32;317817;-90
2023/05/07 04:39:10;;;;;;;14.23;6.40;;;;;;;;;;4400580;32;316635;-90
2023/05/07 04:41:37;;;;;;;7.60;6.07;;;;;;;;;;4380262;32;317819;-91
2023/05/07 04:44:05;;;;;;;8.17;6.47;;;;;;;;;;4390445;32;317706;-90
2023/05/07 04:46:32;;;;;;;7.73;5.77;;;;;;;;;;4404130;32;316509;-90
2023/05/07 04:49:00;;;;;;;13.37;7.03;;;;;;;;;;4367890;32;316469;-90
2023/05/07 04:51:29;;;;;;;11.20;7.63;;;;;;;;;;4384257;32;317517;-89
2023/05/07 04:53:56;;;;;;;19.13;8.90;;;;;;;;;;4395235;32;317755;-90
2023/05/07 04:56:23;;;;;;;15.93;8.53;;;;;;;;;;4405499;32;316980;-91
2023/05/07 04:58:50;;;;;;;15.13;8.10;;;;;;;;;;4393897;32;317727;-90
2023/05/07 05:01:17;;;;;;;12.43;7.23;;;;;;;;;;4381932;32;317477;-90
2023/05/07 05:03:44;;;;;;;14.23;8.30;;;;;;;;;;4378183;32;317657;-90
2023/05/07 05:06:12;;;;;;;16.57;8.67;;;;;;;;;;4401383;32;357164;-90
2023/05/07 05:08:41;;;;;;;15.43;6.70;;;;;;;;;;4395659;32;317360;-90
2023/05/07 05:11:09;;;;;;;14.23;5.60;;;;;;;;;;4370603;32;317638;-90
2023/05/07 05:13:36;;;;;;;9.67;6.80;;;;;;;;;;4402355;32;317595;-90
2023/05/07 05:16:03;;;;;;;8.80;6.00;;;;;;;;;;4392209;32;414579;-89
2023/05/07 05:18:31;;;;;;;14.93;7.00;;;;;;;;;;4404955;32;316599;-90
2023/05/07 05:20:58;;;;;;;11.90;6.63;;;;;;;;;;4380146;32;317614;-90
2023/05/07 05:23:28;;;;;;;8.60;6.83;;;;;;;;;;4405675;32;317601;-90
2023/05/07 05:25:58;;;;;;;10.90;6.63;;;;;;;;;;4408682;32;326410;-90
2023/05/07 05:28:25;;;;;;;10.13;6.07;;;;;;;;;;4405980;32;316232;-90
2023/05/07 05:30:54;;;;;;;10.13;6.37;;;;;;;;;;4389429;32;317459;-90
2023/05/07 05:33:23;;;;;;;8.43;5.47;;;;;;;;;;4391739;32;318086;-89
2023/05/07 05:35:51;;;;;;;7.63;5.60;;;;;;;;;;4374063;32;316616;-90
2023/05/07 05:38:18;;;;;;;12.27;5.60;;;;;;;;;;4394938;32;316389;-90
2023/05/07 05:40:45;;;;;;;8.77;5.53;;;;;;;;;;4368362;32;317632;-90
2023/05/07 05:43:15;;;;;;;9.13;5.43;;;;;;;;;;4396204;32;316639;-90
2023/05/07 05:45:42;;;;;;;8.57;5.90;;;;;;;;;;4382373;32;316638;-90
2023/05/07 05:48:10;;;;;;;10.57;6.22;;;;;;;;;;4403643;32;316516;-89
2023/05/07 05:50:37;;;;;;;8.53;5.97;;;;;;;;;;4392651;32;349970;-91
2023/05/07 05:53:04;;;;;;;8.33;6.33;;;;;;;;;;4390591;32;316434;-90
2023/05/07 05:55:33;;;;;;;8.13;6.53;;;;;;;;;;4400455;32;316434;-90
2023/05/07 05:58:01;;;;;;;7.05;6.10;;;;;;;;;;4379747;32;316996;-90
2023/05/07 06:00:30;;;;;;;6.30;5.03;;;;;;;;;;4389749;32;316456;-90
2023/05/07 06:02:57;;;;;;;8.43;6.60;;;;;;;;;;4394404;32;316409;-91
2023/05/07 06:05:24;;;;;;;7.82;6.10;;;;;;;;;;4390601;32;316496;-90
2023/05/07 06:07:51;;;;;;;10.20;6.30;;;;;;;;;;4393292;32;317061;-90
2023/05/07 06:10:18;;;;;;;8.47;6.27;;;;;;;;;;4397091;32;317515;-90
2023/05/07 06:12:45;;;;;;;8.23;6.23;;;;;;;;;;4392582;32;335600;-90
2023/05/07 06:15:12;;;;;;;12.07;6.93;;;;;;;;;;4404287;32;316539;-90
2023/05/07 06:17:41;;;;;;;10.43;6.97;;;;;;;;;;4389033;32;398058;-90
2023/05/07 06:20:09;;;;;;;11.20;6.43;;;;;;;;;;4403270;32;317353;-90
2023/05/07 06:22:36;;;;;;;10.83;5.67;;;;;;;;;;4376843;32;317569;-90
2023/05/07 06:25:03;;;;;;;9.17;5.60;;;;;;;;;;4377421;32;389626;-90
2023/05/07 06:27:30;;;;;;;8.18;5.95;;;;;;;;;;4388572;32;325937;-90
2023/05/07 06:29:59;;;;;;;8.55;5.07;;;;;;;;;;4382322;32;316568;-90
2023/05/07 06:32:26;;;;;;;9.13;5.10;;;;;;;;;;4403871;32;316321;-90
2023/05/07 06:34:55;;;;;;;9.07;4.80;;;;;;;;;;4359321;32;316507;-90
2023/05/07 06:37:24;;;;;;;8.07;5.12;;;;;;;;;;4404004;32;316363;-89
2023/05/07 06:39:51;;;;;;;6.30;5.30;;;;;;;;;;4372521;32;316373;-90
2023/05/07 06:42:18;;;;;;;6.45;4.87;;;;;;;;;;4390343;32;316530;-90
2023/05/07 06:44:45;;;;;;;8.10;5.40;;;;;;;;;;4365817;32;316528;-91
2023/05/07 06:47:12;;;;;;;6.13;4.63;;;;;;;;;;4402260;32;316487;-90
2023/05/07 06:49:39;;;;;;;10.65;4.25;;;;;;;;;;4393560;32;316217;-90
2023/05/07 06:52:07;;;;;;;7.07;4.97;;;;;;;;;;4403443;32;317451;-89
2023/05/07 06:54:34;;;;;;;11.27;5.17;;;;;;;;;;4376335;32;316533;-90
2023/05/07 06:57:01;;;;;;;6.20;4.67;;;;;;;;;;4367862;32;417970;-90
2023/05/07 06:59:28;;;;;;;6.60;5.13;;;;;;;;;;4388008;32;332508;-89
2023/05/07 07:01:55;;;;;;;9.80;5.62;;;;;;;;;;4377876;32;316538;-90
2023/05/07 07:04:24;;;;;;;7.27;5.63;;;;;;;;;;4389955;32;316314;-90
2023/05/07 07:06:53;;;;;;;7.30;6.23;;;;;;;;;;4371258;32;316388;-90
2023/05/07 07:09:21;;;;;;;7.45;5.60;;;;;;;;;;4366301;32;316790;-91
2023/05/07 07:11:48;;;;;;;8.00;4.97;;;;;;;;;;4391757;32;316794;-90
2023/05/07 07:14:15;;;;;;;5.15;4.65;;;;;;;;;;4402931;32;316277;-90
2023/05/07 07:16:42;;;;;;;11.03;4.70;;;;;;;;;;4376648;32;358526;-91
2023/05/07 07:19:09;;;;;;;7.82;4.18;;;;;;;;;;4401295;32;317545;-90
2023/05/07 07:21:37;;;;;;;9.88;5.40;;;;;;;;;;4401130;32;316614;-91
2023/05/07 07:24:07;;;;;;;6.62;4.43;;;;;;;;;;4389396;32;316508;-90
2023/05/07 07:26:36;;;;;;;6.30;4.30;;;;;;;;;;4402793;32;316264;-91
2023/05/07 07:29:03;;;;;;;11.77;5.57;;;;;;;;;;4382346;32;416063;-90
2023/05/07 07:31:32;;;;;;;7.95;4.37;;;;;;;;;;4388471;32;317685;-91
2023/05/07 07:33:59;;;;;;;5.40;4.33;;;;;;;;;;4390509;32;316789;-90
2023/05/07 07:36:26;;;;;;;8.18;5.32;;;;;;;;;;4402786;32;316398;-90
2023/05/07 07:38:55;;;;;;;8.30;4.93;;;;;;;;;;4377187;32;323416;-90
2023/05/07 07:41:22;;;;;;;7.22;4.53;;;;;;;;;;4403530;32;316483;-90
2023/05/07 07:43:50;;;;;;;6.18;4.25;;;;;;;;;;4391804;32;316329;-90
2023/05/07 07:46:18;;;;;;;6.62;4.22;;;;;;;;;;4403008;32;316377;-91
2023/05/07 07:48:44;;;;;;;7.45;4.53;;;;;;;;;;4391183;32;317126;-90
2023/05/07 07:51:11;;;;;;;5.25;4.75;;;;;;;;;;4395183;32;316387;-90
2023/05/07 07:53:38;;;;;;;6.47;4.47;;;;;;;;;;4393586;32;315208;-91
2023/05/07 07:56:07;;;;;;;10.35;5.07;;;;;;;;;;4406068;32;349169;-90
2023/05/07 07:58:35;;;;;;;8.85;4.28;;;;;;;;;;4402774;32;317525;-91
2023/05/07 08:01:04;;;;;;;7.45;5.85;;;;;;;;;;4377018;32;388743;-91
2023/05/07 08:03:32;;;;;;;7.05;4.97;;;;;;;;;;4388509;32;316265;-90
2023/05/07 08:05:59;;;;;;;9.20;4.50;;;;;;;;;;4391673;32;316299;-89
2023/05/07 08:08:26;;;;;;;6.50;4.65;;;;;;;;;;4401340;32;316468;-89
2023/05/07 08:10:53;;;;;;;7.53;4.62;;;;;;;;;;4393107;32;316663;-90
2023/05/07 08:13:19;;;;;;;5.97;4.37;;;;;;;;;;4403467;32;316071;-91
2023/05/07 08:15:46;;;;;;;11.97;4.93;;;;;;;;;;4394452;32;332428;-91
2023/05/07 08:18:18;;;;;;;7.07;4.12;;;;;;;;;;4398584;32;317435;-90
2023/05/07 08:20:48;;;;;;;9.18;3.90;;;;;;;;;;4381861;32;316515;-93
2023/05/07 08:23:15;;;;;;;6.30;4.07;;;;;;;;;;4404006;32;316051;-91
2023/05/07 08:25:42;;;;;;;9.40;4.60;;;;;;;;;;4394494;32;316391;-91
2023/05/07 08:28:11;;;;;;;12.80;5.12;;;;;;;;;;4395882;32;326025;-93
2023/05/07 08:30:38;;;;;;;6.12;3.80;;;;;;;;;;4387742;32;317462;-91
2023/05/07 08:33:05;;;;;;;5.95;4.72;;;;;;;;;;4390912;32;316478;-90
2023/05/07 08:35:33;;;;;;;5.82;4.70;;;;;;;;;;4404219;32;316306;-92
2023/05/07 08:38:00;;;;;;;58.80;9.50;;;;;;;;;;4394535;32;316761;-90
2023/05/07 08:40:29;;;;;;;8.13;4.87;;;;;;;;;;4391447;32;317539;-91
2023/05/07 08:42:58;;;;;;;6.50;3.80;;;;;;;;;;4395336;32;316575;-91
2023/05/07 08:45:27;;;;;;;6.75;4.07;;;;;;;;;;4403813;32;316241;-90
2023/05/07 08:48:01;;;;;;;8.93;4.43;;;;;;;;;;4395043;32;316593;-92
2023/05/07 08:50:28;;;;;;;8.75;4.28;;;;;;;;;;4404544;32;316281;-91
2023/05/07 08:53:00;;;;;;;9.65;4.57;;;;;;;;;;4381741;32;316285;-90
2023/05/07 08:55:29;;;;;;;6.97;4.25;;;;;;;;;;4404143;32;316689;-91
2023/05/07 08:57:59;;;;;;;6.90;3.83;;;;;;;;;;4361342;32;316271;-91
2023/05/07 09:00:28;;;;;;;7.50;4.53;;;;;;;;;;4404517;32;316596;-90
2023/05/07 09:02:57;;;;;;;6.72;4.47;;;;;;;;;;4394879;32;316598;-91
2023/05/07 09:05:24;;;;;;;6.03;3.53;;;;;;;;;;4403145;32;316501;-91
2023/05/07 09:07:52;;;;;;;4.83;3.87;;;;;;;;;;4393238;32;316457;-91
2023/05/07 09:10:22;;;;;;;16.87;4.32;;;;;;;;;;4403594;32;332156;-91
2023/05/07 09:12:49;;;;;;;9.77;3.83;;;;;;;;;;4393778;32;317401;-91
2023/05/07 09:15:16;;;;;;;7.65;3.28;;;;;;;;;;4404788;32;316353;-91
2023/05/07 09:17:45;;;;;;;3.70;3.40;;;;;;;;;;4381483;32;316481;-91
2023/05/07 09:20:12;;;;;;;6.32;3.35;;;;;;;;;;4403852;32;316477;-91
2023/05/07 09:22:40;;;;;;;5.62;3.42;;;;;;;;;;4355788;32;316462;-91
2023/05/07 09:25:09;;;;;;;12.55;4.35;;;;;;;;;;4390809;32;316700;-91
2023/05/07 09:27:38;;;;;;;3.70;3.33;;;;;;;;;;4403038;32;317386;-90
2023/05/07 09:30:06;;;;;;;6.15;4.60;;;;;;;;;;4377900;32;388469;-90
2023/05/07 09:32:37;;;;;;;11.07;4.43;;;;;;;;;;4403797;32;316450;-91
2023/05/07 09:35:05;;;;;;;6.28;3.85;;;;;;;;;;4371154;32;418898;-90
2023/05/07 09:37:34;;;;;;;3.78;3.28;;;;;;;;;;4402096;32;316408;-91
2023/05/07 09:40:01;;;;;;;11.80;3.60;;;;;;;;;;4390671;32;316683;-91
2023/05/07 09:42:34;;;;;;;5.68;3.78;;;;;;;;;;4404204;32;317483;-90
2023/05/07 09:45:07;;;;;;;4.93;4.40;;;;;;;;;;4394932;32;316641;-90
2023/05/07 09:47:38;;;;;;;5.82;4.05;;;;;;;;;;4403395;32;316353;-90
2023/05/07 09:50:10;;;;;;;7.03;4.10;;;;;;;;;;4378618;32;415953;-91
2023/05/07 09:52:40;;;;;;;5.72;4.12;;;;;;;;;;4397545;32;316425;-91
2023/05/07 09:55:08;;;;;;;10.48;4.25;;;;;;;;;;4403141;32;316526;-90
2023/05/07 09:57:37;;;;;;;6.12;4.70;;;;;;;;;;4378533;32;317484;-90
2023/05/07 10:00:08;;;;;;;9.50;3.70;;;;;;;;;;4389854;32;415248;-91
2023/05/07 10:02:39;;;;;;;6.60;4.28;;;;;;;;;;4389960;32;316478;-90
2023/05/07 10:05:07;;;;;;;9.90;3.60;;;;;;;;;;4384300;32;416682;-91
2023/05/07 10:07:34;;;;;;;4.60;3.67;;;;;;;;;;4391516;32;316533;-91
2023/05/07 10:10:04;;;;;;;3.37;2.62;;;;;;;;;;4381222;32;316324;-90
2023/05/07 10:12:37;;;;;;;6.07;3.30;;;;;;;;;;4410300;32;346447;-90
2023/05/07 10:15:07;;;;;;;3.47;3.17;;;;;;;;;;4405253;32;417497;-91
2023/05/07 10:17:36;;;;;;;3.85;3.10;;;;;;;;;;4391309;32;316116;-91
2023/05/07 10:20:04;;;;;;;5.35;3.80;;;;;;;;;;4386152;32;416129;-91
2023/05/07 10:22:33;;;;;;;3.42;2.80;;;;;;;;;;4404359;32;341578;-91
2023/05/07 10:25:03;;;;;;;3.35;2.83;;;;;;;;;;4386909;32;316476;-92
2023/05/07 10:27:31;;;;;;;5.90;2.70;;;;;;;;;;4392783;32;316314;-91
2023/05/07 10:30:14;;;;;;;4.85;2.60;;;;;;;;;;4400741;32;316308;-91
2023/05/07 10:32:47;;;;;;;3.62;3.00;;;;;;;;;;4401532;32;316195;-91
2023/05/07 10:35:18;;;;;;;3.08;2.33;;;;;;;;;;4406574;32;315208;-91
2023/05/07 10:37:46;;;;;;;6.05;2.80;;;;;;;;;;4408939;32;316188;-92
2023/05/07 10:40:14;;;;;;;10.23;3.08;;;;;;;;;;4406622;32;316209;-92
2023/05/07 10:42:57;;;;;;;7.30;3.25;;;;;;;;;;4395506;32;316508;-91
2023/05/07 10:45:25;;;;;;;4.93;3.20;;;;;;;;;;4395602;32;316533;-91
2023/05/07 10:48:18;;;;;;;9.60;3.05;;;;;;;;;;4386978;32;316328;-91
2023/05/07 10:50:47;;;;;;;5.72;4.10;;;;;;;;;;4364489;32;316362;-92
2023/05/07 10:53:27;;;;;;;6.50;3.30;;;;;;;;;;4402011;32;315106;-91
2023/05/07 10:56:27;;;;;;;5.68;2.97;;;;;;;;;;4419370;32;315125;-91
2023/05/07 10:58:55;;;;;;;3.67;3.17;;;;;;;;;;4402898;32;418846;-91
2023/05/07 11:01:53;;;;;;;4.37;3.67;;;;;;;;;;4409372;32;316165;-91
2023/05/07 11:04:27;;;;;;;5.07;3.28;;;;;;;;;;4396111;32;315116;-92
2023/05/07 11:07:36;;;;;;;3.70;3.15;;;;;;;;;;4403646;32;315158;-91
2023/05/07 11:10:05;;;;;;;3.60;2.75;;;;;;;;;;4409825;32;418476;-92
2023/05/07 11:12:55;;;;;;;6.97;2.87;;;;;;;;;;4394728;32;330310;-91
2023/05/07 11:15:46;;;;;;;3.72;3.25;;;;;;;;;;4395235;32;315576;-92
2023/05/07 11:18:15;;;;;;;6.15;3.47;;;;;;;;;;4394673;32;315246;-92
2023/05/07 11:20:58;;;;;;;2.83;2.42;;;;;;;;;;4407150;32;315188;-92
2023/05/07 11:24:11;;;;;;;5.05;2.90;;;;;;;;;;4409327;32;328119;-91
2023/05/07 11:26:46;;;;;;;7.03;2.83;;;;;;;;;;4379017;32;389632;-90
2023/05/07 11:29:15;;;;;;;4.20;3.00;;;;;;;;;;4389730;32;316777;-93
2023/05/07 11:31:44;;;;;;;3.87;3.17;;;;;;;;;;4403261;32;316479;-90
2023/05/07 11:34:12;;;;;;;4.25;2.75;;;;;;;;;;4379541;32;316447;-93
2023/05/07 11:36:45;;;;;;;4.93;2.90;;;;;;;;;;4397652;32;316362;-90
2023/05/07 11:39:26;;;;;;;4.68;3.12;;;;;;;;;;4404037;32;334226;-92
2023/05/07 11:41:53;;;;;;;4.95;3.40;;;;;;;;;;4404603;32;315306;-92
2023/05/07 11:44:20;;;;;;;4.37;3.37;;;;;;;;;;4394954;32;315502;-91
2023/05/07 11:46:47;;;;;;;4.15;3.35;;;;;;;;;;4397706;32;315207;-90
2023/05/07 11:49:16;;;;;;;3.92;3.30;;;;;;;;;;4398693;32;316434;-92
2023/05/07 11:51:46;;;;;;;6.85;3.20;;;;;;;;;;4391052;32;316480;-90
2023/05/07 11:54:16;;;;;;;3.60;2.97;;;;;;;;;;4392403;32;364451;-93
2023/05/07 11:56:47;;;;;;;4.22;3.67;;;;;;;;;;4390695;32;316606;-92
2023/05/07 11:59:20;;;;;;;7.05;2.97;;;;;;;;;;4394586;32;316672;-90
2023/05/07 12:01:48;;;;;;;5.18;3.35;;;;;;;;;;4403725;32;316987;-91
2023/05/07 12:04:21;;;;;;;3.75;2.92;;;;;;;;;;4391876;32;316582;-91
2023/05/07 12:06:50;;;;;;;6.28;3.62;;;;;;;;;;4401826;32;316516;-92
2023/05/07 12:09:18;;;;;;;3.22;2.85;;;;;;;;;;4390201;32;316733;-92
2023/05/07 12:11:47;;;;;;;8.77;4.35;;;;;;;;;;4402122;32;316607;-92
2023/05/07 12:14:16;;;;;;;6.18;3.42;;;;;;;;;;4384237;32;316504;-91
2023/05/07 12:16:43;;;;;;;6.75;3.42;;;;;;;;;;4402040;32;316486;-91
2023/05/07 12:19:12;;;;;;;4.55;3.17;;;;;;;;;;4390405;32;392795;-92
2023/05/07 12:21:42;;;;;;;7.00;3.20;;;;;;;;;;4386929;32;337352;-91
2023/05/07 12:24:14;;;;;;;9.38;3.37;;;;;;;;;;4378159;32;351493;-91
2023/05/07 12:26:41;;;;;;;3.50;3.03;;;;;;;;;;4397297;32;316553;-91
2023/05/07 12:29:09;;;;;;;3.10;2.80;;;;;;;;;;4409484;32;316138;-90
2023/05/07 12:31:36;;;;;;;5.05;2.58;;;;;;;;;;4414715;32;316239;-91
2023/05/07 12:34:03;;;;;;;5.82;3.30;;;;;;;;;;4389817;32;316597;-91
2023/05/07 12:36:38;;;;;;;2.97;2.67;;;;;;;;;;4371736;32;316485;-91
2023/05/07 12:39:05;;;;;;;4.50;3.25;;;;;;;;;;4394273;32;317065;-91
2023/05/07 12:41:37;;;;;;;3.75;3.08;;;;;;;;;;4376581;32;316381;-91
2023/05/07 12:44:06;;;;;;;7.15;3.05;;;;;;;;;;4398739;32;351839;-91
2023/05/07 12:46:33;;;;;;;6.28;3.22;;;;;;;;;;4383855;32;317255;-90
2023/05/07 12:49:00;;;;;;;3.10;2.80;;;;;;;;;;4376024;32;316685;-91
2023/05/07 12:51:29;;;;;;;3.53;2.50;;;;;;;;;;4390531;32;344034;-91
2023/05/07 12:53:58;;;;;;;3.92;3.53;;;;;;;;;;4386520;32;316692;-91
2023/05/07 12:56:25;;;;;;;7.47;2.72;;;;;;;;;;4355049;32;316625;-91
2023/05/07 12:58:58;;;;;;;5.72;3.67;;;;;;;;;;4396157;32;316156;-90
2023/05/07 13:01:30;;;;;;;3.47;3.17;;;;;;;;;;4382963;32;316510;-91
2023/05/07 13:04:02;;;;;;;4.40;3.10;;;;;;;;;;4404286;32;316603;-91
2023/05/07 13:06:29;;;;;;;3.55;3.08;;;;;;;;;;4369144;32;316487;-91
2023/05/07 13:08:56;;;;;;;4.35;3.12;;;;;;;;;;4403970;32;316393;-92
2023/05/07 13:11:24;;;;;;;4.18;3.33;;;;;;;;;;4386362;32;335933;-92
2023/05/07 13:13:53;;;;;;;3.92;3.42;;;;;;;;;;4402266;32;316655;-91
2023/05/07 13:16:20;;;;;;;5.65;3.37;;;;;;;;;;4380192;32;324628;-90
2023/05/07 13:18:48;;;;;;;3.53;2.92;;;;;;;;;;4404064;32;316269;-91
2023/05/07 13:21:15;;;;;;;3.90;3.47;;;;;;;;;;4373553;32;316799;-91
2023/05/07 13:23:42;;;;;;;4.93;3.00;;;;;;;;;;4390318;32;316466;-91
2023/05/07 13:26:10;;;;;;;8.10;3.12;;;;;;;;;;4394071;32;316501;-91
2023/05/07 13:28:38;;;;;;;6.28;3.00;;;;;;;;;;4397247;32;316402;-91
2023/05/07 13:31:08;;;;;;;2.95;2.67;;;;;;;;;;4404242;32;316312;-92
2023/05/07 13:33:35;;;;;;;7.85;3.47;;;;;;;;;;4378806;32;408677;-91
2023/05/07 13:36:05;;;;;;;6.93;3.35;;;;;;;;;;4378851;32;316638;-91
2023/05/07 13:38:32;;;;;;;3.83;2.87;;;;;;;;;;4394994;32;316389;-91
2023/05/07 13:41:00;;;;;;;3.12;2.83;;;;;;;;;;4391923;32;316684;-91
2023/05/07 13:43:30;;;;;;;5.10;2.95;;;;;;;;;;4394813;32;316419;-91
2023/05/07 13:45:57;;;;;;;5.03;3.42;;;;;;;;;;4396253;32;316777;-91
2023/05/07 13:48:25;;;;;;;5.07;3.53;;;;;;;;;;4394353;32;316411;-92
2023/05/07 13:50:52;;;;;;;5.97;4.12;;;;;;;;;;4389492;32;316453;-91
2023/05/07 13:53:19;;;;;;;4.67;3.70;;;;;;;;;;4393081;32;334020;-91
2023/05/07 13:55:46;;;;;;;4.72;3.45;;;;;;;;;;4397190;32;316557;-91
2023/05/07 13:58:15;;;;;;;8.57;3.80;;;;;;;;;;4378402;32;316677;-91
2023/05/07 14:00:42;;;;;;;10.25;4.35;;;;;;;;;;4396460;32;316609;-91
2023/05/07 14:03:09;;;;;;;7.93;3.78;;;;;;;;;;4392463;32;378478;-92
2023/05/07 14:05:38;;;;;;;6.18;4.20;;;;;;;;;;4402648;32;324495;-91
2023/05/07 14:08:07;;;;;;;5.68;3.80;;;;;;;;;;4404781;32;316723;-90
2023/05/07 14:10:35;;;;;;;10.40;4.00;;;;;;;;;;4391362;32;416687;-91
2023/05/07 14:13:02;;;;;;;6.90;3.42;;;;;;;;;;4388740;32;317501;-91
2023/05/07 14:15:30;;;;;;;4.00;3.03;;;;;;;;;;4384927;32;316658;-91
2023/05/07 14:17:58;;;;;;;4.25;2.65;;;;;;;;;;4390477;32;316675;-91
2023/05/07 14:20:28;;;;;;;5.72;2.70;;;;;;;;;;4380056;32;316782;-91
2023/05/07 14:22:56;;;;;;;6.95;3.17;;;;;;;;;;4404267;32;316404;-91
2023/05/07 14:25:23;;;;;;;6.90;3.70;;;;;;;;;;4379539;32;316683;-91
2023/05/07 14:27:50;;;;;;;6.78;4.25;;;;;;;;;;4402471;32;343060;-91
2023/05/07 14:30:18;;;;;;;6.05;4.25;;;;;;;;;;4380434;32;327565;-90
2023/05/07 14:32:45;;;;;;;9.32;3.75;;;;;;;;;;4390444;32;316347;-91
2023/05/07 14:35:12;;;;;;;7.03;3.85;;;;;;;;;;4379359;32;316741;-92